Snohomish County (Paine Field) Airport Everett US
ICAO: KPAE
IATA: PAE
Category: Medium
Scheduled Services: No

Elevation: 606 ft
TransAlt. 18000 ft.

Airport Communications:
ATIS:128.65
CLNC DEL:126.75
SEATTLE CNTR:128.5
CTAF:132.95
GND:121.8
AR OPS:34.1
SEATTLE RDO:132.96
ACFT ARR E OF CNTRLN ORRY 16L/34R:120.2
ACFT ARR W OF CNTRLN ORRY 16R/34L:132.95
UNICOM:122.95

KPAE Zoom In..

Runways:

(A) RW 11 length 4504 ft width 75 ft
---- / hdg 117

(B) RW 16L length 3004 ft width 75 ft
---- / hdg 163

(C) RW 16R length 9010 ft width 150 ft
ILS 109.30 / hdg 162

(D) RW 29 length 4504 ft width 75 ft
---- / hdg 297

(E) RW 34L length 9010 ft width 150 ft
---- / hdg 342

(F) RW 34R length 3004 ft width 75 ft
---- / hdg 343

Location; KPAE
Day. 24 / Time. 01.53 Zulu
* Altimeter: 29.78
* Temperature: 05° c. 41°f.
* Wind from: 090° Speed 06 kn.
Dewpoint: 04° c.
Visibility: 4 Statute Miles.
Clouds: Broken 500 ft.
Clouds: Broken 3600 ft.
Clouds: Overcast 4500 ft.
Conditions: Light Rain.Conditions: Mist.

KPAE 240153Z 09006KT 4SM -RA BR BKN005 BKN036 OVC045 05/04 A2978 RMK AO2 SLP087 P0001 T00500044


Wind From 090°
Speed 06 kn.

YouTube Music Video
 
jpsmedia.com for Web Design  worldairports.se 2018   terms of use